createdAt,value
2019-02-24T00:00:38.747Z,18.00
2019-02-24T00:01:38.716Z,20.70
2019-02-24T00:02:38.704Z,19.30
2019-02-24T00:03:38.693Z,18.40
2019-02-24T00:04:38.686Z,19.80
2019-02-24T00:05:38.677Z,21.70
2019-02-24T00:06:38.678Z,19.70
2019-02-24T00:07:38.653Z,17.60
2019-02-24T00:08:38.634Z,18.00
2019-02-24T00:09:38.624Z,17.50
2019-02-24T00:10:38.619Z,18.60
2019-02-24T00:11:38.640Z,18.80
2019-02-24T00:12:38.597Z,16.80
2019-02-24T00:13:38.584Z,16.90
2019-02-24T00:14:38.571Z,19.00
2019-02-24T00:15:38.558Z,19.10
2019-02-24T00:16:38.585Z,17.70
2019-02-24T00:17:38.540Z,19.50
2019-02-24T00:18:38.528Z,17.60
2019-02-24T00:19:38.517Z,18.40
2019-02-24T00:20:38.503Z,18.20
2019-02-24T00:21:38.495Z,19.60
2019-02-24T00:22:38.504Z,17.20
2019-02-24T00:23:38.472Z,18.20
2019-02-24T00:24:38.464Z,16.40
2019-02-24T00:25:38.461Z,16.50
2019-02-24T00:26:38.437Z,17.20
2019-02-24T00:27:38.455Z,18.90
2019-02-24T00:28:38.414Z,16.80
2019-02-24T00:29:38.406Z,17.60
2019-02-24T00:30:38.401Z,16.80
2019-02-24T00:31:38.384Z,17.50
2019-02-24T00:32:38.379Z,18.50
2019-02-24T00:33:38.379Z,16.20
2019-02-24T00:34:38.355Z,16.70
2019-02-24T00:35:38.342Z,16.70
2019-02-24T00:36:38.345Z,17.00
2019-02-24T00:37:38.319Z,19.20
2019-02-24T00:38:38.330Z,16.70
2019-02-24T00:39:38.296Z,16.50
2019-02-24T00:40:38.283Z,15.70
2019-02-24T00:41:38.275Z,18.60
2019-02-24T00:42:38.264Z,17.50
2019-02-24T00:43:38.291Z,16.60
2019-02-24T00:44:38.243Z,17.30
2019-02-24T00:45:38.229Z,19.00
2019-02-24T00:46:38.218Z,17.60
2019-02-24T00:47:38.208Z,18.90
2019-02-24T00:48:38.197Z,18.10
2019-02-24T00:49:38.207Z,16.70
2019-02-24T00:50:38.174Z,17.30
2019-02-24T00:51:38.165Z,16.90
2019-02-24T00:52:38.163Z,17.40
2019-02-24T00:53:38.149Z,17.20
2019-02-24T00:54:38.151Z,19.10
2019-02-24T00:55:38.123Z,20.70
2019-02-24T00:56:38.111Z,16.80
2019-02-24T00:57:38.110Z,16.20
2019-02-24T00:58:38.100Z,17.40
2019-02-24T00:59:38.100Z,16.70
2019-02-24T01:00:38.068Z,17.70
2019-02-24T01:01:38.056Z,16.70
2019-02-24T01:02:38.050Z,19.80
2019-02-24T01:03:38.033Z,19.00
2019-02-24T01:04:38.050Z,15.50
2019-02-24T01:05:38.014Z,19.20
2019-02-24T01:06:38.001Z,17.30
2019-02-24T01:07:37.999Z,15.40
2019-02-24T01:08:37.981Z,15.80
2019-02-24T01:09:37.968Z,19.10
2019-02-24T01:10:37.980Z,18.50
2019-02-24T01:11:37.947Z,17.20
2019-02-24T01:12:37.948Z,16.40
2019-02-24T01:13:37.924Z,16.40
2019-02-24T01:14:37.911Z,15.70
2019-02-24T01:15:37.924Z,15.80
2019-02-24T01:16:37.902Z,17.40
2019-02-24T01:17:37.895Z,16.60
2019-02-24T01:18:37.873Z,18.50
2019-02-24T01:19:37.858Z,19.10
2019-02-24T01:20:37.850Z,17.80
2019-02-24T01:21:37.854Z,16.60
2019-02-24T01:22:37.840Z,17.50
2019-02-24T01:23:37.815Z,18.20
2019-02-24T01:24:37.805Z,16.10
2019-02-24T01:25:37.794Z,17.80
2019-02-24T01:26:37.801Z,17.10
2019-02-24T01:27:37.769Z,17.70
2019-02-24T01:28:37.760Z,17.90
2019-02-24T01:29:37.750Z,17.50
2019-02-24T01:30:37.743Z,17.40
2019-02-24T01:31:37.748Z,17.70
2019-02-24T01:32:37.722Z,16.70
2019-02-24T01:33:37.709Z,17.50
2019-02-24T01:34:37.693Z,18.30
2019-02-24T01:35:37.683Z,19.90
2019-02-24T01:36:37.697Z,17.20
2019-02-24T01:37:37.660Z,17.60
2019-02-24T01:38:37.654Z,16.70
2019-02-24T01:39:37.643Z,16.20
2019-02-24T01:40:37.630Z,18.20
2019-02-24T01:41:37.645Z,17.20
2019-02-24T01:42:37.606Z,17.50
2019-02-24T01:43:37.599Z,16.70
2019-02-24T01:44:37.585Z,17.30
2019-02-24T01:45:37.571Z,16.60
2019-02-24T01:46:37.588Z,16.10
2019-02-24T01:47:37.551Z,18.00
2019-02-24T01:48:37.542Z,17.50
2019-02-24T01:49:37.531Z,18.00
2019-02-24T01:50:37.524Z,18.70
2019-02-24T01:51:37.528Z,17.30
2019-02-24T01:52:37.501Z,15.80
2019-02-24T01:53:37.487Z,15.90
2019-02-24T01:54:37.474Z,20.90
2019-02-24T01:55:37.470Z,18.50
2019-02-24T01:56:37.478Z,17.80
2019-02-24T01:57:37.443Z,16.80
2019-02-24T01:58:37.432Z,18.30
2019-02-24T01:59:37.423Z,16.20
2019-02-24T02:00:37.413Z,17.10
2019-02-24T02:01:37.418Z,16.50
2019-02-24T02:02:37.392Z,18.70
2019-02-24T02:03:37.379Z,17.20
2019-02-24T02:04:37.370Z,18.70
2019-02-24T02:05:37.354Z,17.70
2019-02-24T02:06:37.367Z,16.20
2019-02-24T02:07:37.336Z,19.00
2019-02-24T02:08:37.322Z,17.30
2019-02-24T02:09:37.309Z,17.70
2019-02-24T02:10:37.301Z,16.30
2019-02-24T02:11:37.309Z,16.30
2019-02-24T02:12:37.278Z,15.50
2019-02-24T02:13:37.273Z,17.30
2019-02-24T02:14:37.260Z,17.00
2019-02-24T02:15:37.251Z,18.90
2019-02-24T02:16:37.256Z,18.70
2019-02-24T02:17:37.228Z,18.10
2019-02-24T02:18:37.226Z,15.40
2019-02-24T02:19:37.203Z,17.00
2019-02-24T02:20:37.193Z,15.30
2019-02-24T02:21:37.200Z,17.10
2019-02-24T02:22:37.172Z,17.20
2019-02-24T02:23:37.170Z,15.70
2019-02-24T02:24:37.155Z,18.70
2019-02-24T02:25:37.138Z,17.50
2019-02-24T02:26:37.148Z,17.00
2019-02-24T02:27:37.123Z,16.00
2019-02-24T02:28:43.804Z,15.40
2019-02-24T02:29:38.091Z,16.00
2019-02-24T02:30:37.084Z,17.60
2019-02-24T02:31:37.094Z,15.90
2019-02-24T02:32:37.067Z,15.80
2019-02-24T02:33:37.050Z,17.80
2019-02-24T02:34:37.037Z,16.40
2019-02-24T02:35:37.031Z,18.80
2019-02-24T02:36:37.037Z,15.30
2019-02-24T02:37:37.010Z,18.40
2019-02-24T02:38:36.998Z,17.40
2019-02-24T02:39:36.989Z,16.00
2019-02-24T02:40:36.981Z,16.60
2019-02-24T02:41:38.840Z,18.30
2019-02-24T02:42:36.956Z,14.60
2019-02-24T02:43:36.945Z,16.30
2019-02-24T02:44:36.938Z,17.20
2019-02-24T02:45:36.921Z,15.70
2019-02-24T02:46:36.937Z,15.90
2019-02-24T02:47:36.900Z,16.60
2019-02-24T02:48:36.891Z,16.60
2019-02-24T02:49:36.878Z,17.20
2019-02-24T02:50:36.875Z,19.90
2019-02-24T02:51:36.860Z,17.40
2019-02-24T02:52:36.872Z,16.30
2019-02-24T02:53:36.838Z,17.10
2019-02-24T02:54:36.845Z,15.40
2019-02-24T02:55:36.817Z,15.20
2019-02-24T02:56:36.804Z,17.30
2019-02-24T02:57:36.812Z,15.50
2019-02-24T02:58:36.784Z,16.40
2019-02-24T02:59:36.775Z,17.00
2019-02-24T03:00:36.766Z,16.50
2019-02-24T03:01:36.776Z,16.80
2019-02-24T03:02:36.740Z,18.30
2019-02-24T03:03:36.733Z,16.70
2019-02-24T03:04:36.719Z,17.50
2019-02-24T03:05:36.708Z,15.30
2019-02-24T03:06:36.694Z,14.70
2019-02-24T03:07:36.710Z,17.90
2019-02-24T03:08:36.684Z,15.70
2019-02-24T03:09:36.663Z,15.50
2019-02-24T03:10:36.657Z,15.70
2019-02-24T03:11:36.646Z,15.00
2019-02-24T03:12:36.651Z,17.60
2019-02-24T03:13:36.630Z,18.10
2019-02-24T03:14:36.612Z,15.30
2019-02-24T03:15:36.598Z,17.90
2019-02-24T03:16:36.591Z,18.50
2019-02-24T03:17:36.604Z,16.60
2019-02-24T03:18:36.570Z,15.70
2019-02-24T03:19:36.564Z,17.00
2019-02-24T03:20:36.548Z,15.40
2019-02-24T03:21:36.536Z,16.50
2019-02-24T03:22:36.532Z,17.30
2019-02-24T03:23:36.533Z,16.30
2019-02-24T03:24:36.500Z,16.60
2019-02-24T03:25:36.491Z,16.50
2019-02-24T03:26:36.482Z,16.30
2019-02-24T03:27:36.470Z,16.00
2019-02-24T03:28:36.479Z,18.30
2019-02-24T03:29:36.450Z,19.30
2019-02-24T03:30:36.468Z,17.40
2019-02-24T03:31:36.426Z,17.10
2019-02-24T03:32:36.444Z,17.30
2019-02-24T03:33:36.423Z,16.40
2019-02-24T03:34:36.393Z,15.40
2019-02-24T03:35:36.383Z,16.70
2019-02-24T03:36:36.377Z,17.50
2019-02-24T03:37:36.365Z,18.90
2019-02-24T03:38:36.379Z,17.00
2019-02-24T03:39:36.336Z,15.70
2019-02-24T03:40:36.337Z,16.30
2019-02-24T03:41:36.318Z,17.70
2019-02-24T03:42:36.305Z,15.60
2019-02-24T03:43:36.299Z,15.70
2019-02-24T03:44:36.314Z,14.60
2019-02-24T03:45:36.326Z,16.40
2019-02-24T03:46:36.267Z,14.70
2019-02-24T03:47:36.256Z,16.30
2019-02-24T03:48:36.249Z,15.80
2019-02-24T03:49:36.259Z,16.10
2019-02-24T03:50:36.228Z,16.90
2019-02-24T03:51:36.211Z,15.10
2019-02-24T03:52:36.221Z,14.70
2019-02-24T03:53:36.189Z,15.60
2019-02-24T03:54:36.203Z,13.90
2019-02-24T03:55:36.172Z,14.50
2019-02-24T03:56:36.161Z,16.10
2019-02-24T03:57:36.148Z,17.00
2019-02-24T03:58:36.148Z,14.20
2019-02-24T03:59:36.150Z,16.10
2019-02-24T04:00:36.116Z,16.70
2019-02-24T04:01:36.108Z,14.80
2019-02-24T04:02:36.094Z,17.20
2019-02-24T04:03:36.096Z,16.00
2019-02-24T04:04:36.094Z,14.90
2019-02-24T04:05:36.064Z,18.30
2019-02-24T04:06:36.054Z,17.00
2019-02-24T04:07:36.050Z,17.00
2019-02-24T04:08:36.057Z,15.10
2019-02-24T04:09:36.063Z,15.80
2019-02-24T04:10:36.009Z,17.80
2019-02-24T04:11:35.996Z,16.70
2019-02-24T04:12:35.993Z,18.60
2019-02-24T04:13:35.975Z,16.40
2019-02-24T04:14:35.967Z,16.60
2019-02-24T04:15:35.976Z,18.30
2019-02-24T04:16:35.943Z,15.30
2019-02-24T04:17:35.947Z,16.30
2019-02-24T04:18:35.925Z,16.60
2019-02-24T04:19:35.912Z,17.00
2019-02-24T04:20:35.923Z,16.30
2019-02-24T04:21:35.897Z,16.10
2019-02-24T04:22:35.877Z,17.30
2019-02-24T04:23:35.866Z,15.30
2019-02-24T04:24:35.871Z,14.70
2019-02-24T04:25:35.852Z,14.30
2019-02-24T04:26:35.856Z,14.10
2019-02-24T04:27:35.825Z,17.30
2019-02-24T04:28:35.815Z,17.30
2019-02-24T04:29:35.805Z,14.70
2019-02-24T04:30:35.796Z,16.10
2019-02-24T04:31:35.806Z,16.50
2019-02-24T04:32:35.773Z,17.10
2019-02-24T04:33:35.764Z,17.90
2019-02-24T04:34:35.752Z,15.40
2019-02-24T04:35:35.745Z,17.50
2019-02-24T04:36:35.751Z,17.00
2019-02-24T04:37:35.717Z,18.10
2019-02-24T04:38:35.708Z,19.30
2019-02-24T04:39:35.697Z,16.50
2019-02-24T04:40:35.683Z,15.40
2019-02-24T04:41:35.707Z,15.80
2019-02-24T04:42:35.663Z,19.50
2019-02-24T04:43:35.652Z,18.90
2019-02-24T04:44:35.640Z,15.90
2019-02-24T04:45:35.634Z,15.30
2019-02-24T04:46:35.624Z,18.50
2019-02-24T04:47:35.634Z,16.70
2019-02-24T04:48:35.599Z,16.40
2019-02-24T04:49:35.590Z,15.10
2019-02-24T04:50:35.584Z,16.70
2019-02-24T04:51:35.567Z,15.80
2019-02-24T04:52:35.580Z,16.60
2019-02-24T04:53:35.549Z,16.70
2019-02-24T04:54:35.533Z,15.00
2019-02-24T04:55:35.528Z,17.20
2019-02-24T04:56:35.511Z,17.50
2019-02-24T04:57:35.500Z,17.10
2019-02-24T04:58:35.506Z,18.80
2019-02-24T04:59:35.483Z,16.20
2019-02-24T05:00:35.469Z,16.30
2019-02-24T05:01:35.469Z,16.30
2019-02-24T05:02:35.449Z,17.90
2019-02-24T05:03:35.454Z,17.40
2019-02-24T05:04:35.425Z,16.00
2019-02-24T05:05:35.414Z,19.10
2019-02-24T05:06:35.404Z,17.00
2019-02-24T05:07:35.397Z,15.90
2019-02-24T05:08:35.409Z,16.70
2019-02-24T05:09:35.371Z,18.30
2019-02-24T05:10:35.363Z,16.70
2019-02-24T05:11:35.356Z,16.40
2019-02-24T05:12:35.339Z,16.00
2019-02-24T05:13:35.344Z,16.10
2019-02-24T05:14:35.342Z,15.90
2019-02-24T05:15:35.308Z,16.50
2019-02-24T05:16:35.305Z,15.30
2019-02-24T05:17:35.289Z,16.10
2019-02-24T05:18:35.279Z,17.60
2019-02-24T05:19:35.297Z,16.70
2019-02-24T05:20:35.258Z,15.70
2019-02-24T05:21:35.251Z,17.10
2019-02-24T05:22:35.240Z,15.90
2019-02-24T05:23:35.234Z,14.00
2019-02-24T05:24:35.242Z,15.80
2019-02-24T05:25:35.214Z,15.10
2019-02-24T05:26:35.201Z,15.90
2019-02-24T05:27:35.190Z,17.60
2019-02-24T05:28:35.173Z,17.40
2019-02-24T05:29:44.741Z,18.50
2019-02-24T05:30:36.180Z,17.00
2019-02-24T05:31:35.147Z,17.50
2019-02-24T05:32:35.137Z,15.70
2019-02-24T05:33:35.124Z,17.60
2019-02-24T05:34:35.136Z,17.70
2019-02-24T05:35:35.104Z,16.10
2019-02-24T05:36:35.096Z,18.00
2019-02-24T05:37:35.084Z,16.80
2019-02-24T05:38:35.076Z,17.70
2019-02-24T05:39:35.084Z,16.10
2019-02-24T05:40:35.051Z,19.10
2019-02-24T05:41:35.044Z,16.10
2019-02-24T05:42:35.036Z,18.20
2019-02-24T05:43:35.025Z,15.70
2019-02-24T05:44:35.006Z,16.20
2019-02-24T05:45:35.017Z,18.50
2019-02-24T05:46:34.987Z,17.70
2019-02-24T05:47:34.979Z,16.30
2019-02-24T05:48:34.973Z,17.60
2019-02-24T05:49:34.951Z,17.50
2019-02-24T05:50:34.961Z,14.40
2019-02-24T05:51:34.932Z,16.00
2019-02-24T05:52:34.921Z,16.00
2019-02-24T05:53:34.920Z,15.50
2019-02-24T05:54:34.899Z,16.40
2019-02-24T05:55:34.918Z,16.70
2019-02-24T05:56:34.879Z,15.50
2019-02-24T05:57:34.871Z,16.50
2019-02-24T05:58:34.859Z,16.50
2019-02-24T05:59:34.859Z,18.70
2019-02-24T06:00:34.838Z,15.50
2019-02-24T06:01:34.847Z,14.30
2019-02-24T06:02:34.817Z,17.00
2019-02-24T06:03:34.810Z,14.80
2019-02-24T06:04:34.810Z,16.10
2019-02-24T06:05:34.787Z,15.20
2019-02-24T06:06:34.794Z,17.50
2019-02-24T06:07:34.776Z,16.10
2019-02-24T06:08:34.757Z,19.70
2019-02-24T06:09:34.759Z,17.70
2019-02-24T06:10:34.740Z,17.40
2019-02-24T06:11:34.747Z,16.30
2019-02-24T06:12:34.715Z,16.90
2019-02-24T06:13:34.717Z,16.40
2019-02-24T06:14:34.695Z,18.50
2019-02-24T06:15:34.683Z,16.10
2019-02-24T06:16:34.676Z,17.60
2019-02-24T06:17:34.684Z,16.90
2019-02-24T06:18:34.655Z,17.40
2019-02-24T06:19:34.659Z,17.50
2019-02-24T06:20:34.633Z,18.20
2019-02-24T06:21:34.625Z,17.80
2019-02-24T06:22:34.633Z,20.00
2019-02-24T06:23:34.605Z,18.40
2019-02-24T06:24:34.601Z,18.40
2019-02-24T06:25:34.590Z,16.60
2019-02-24T06:26:34.571Z,15.30
2019-02-24T06:27:34.582Z,17.80
2019-02-24T06:28:34.557Z,15.90
2019-02-24T06:29:34.541Z,16.20
2019-02-24T06:30:34.544Z,20.50
2019-02-24T06:31:34.532Z,16.30
2019-02-24T06:32:34.539Z,17.70
2019-02-24T06:33:34.500Z,15.90
2019-02-24T06:34:34.493Z,12.80
2019-02-24T06:35:36.005Z,16.50
2019-02-24T06:36:34.471Z,16.80
2019-02-24T06:37:34.460Z,15.90
2019-02-24T06:38:34.469Z,16.60
2019-02-24T06:39:34.450Z,17.20
2019-02-24T06:40:34.430Z,16.80
2019-02-24T06:41:34.416Z,15.50
2019-02-24T06:42:34.415Z,18.20
2019-02-24T06:43:34.420Z,17.40
2019-02-24T06:44:34.394Z,17.10
2019-02-24T06:45:34.377Z,17.00
2019-02-24T06:46:34.366Z,16.30
2019-02-24T06:47:34.355Z,16.90
2019-02-24T06:48:34.352Z,17.80
2019-02-24T06:49:34.358Z,17.20
2019-02-24T06:50:35.566Z,16.40
2019-02-24T06:51:34.314Z,19.10
2019-02-24T06:52:34.305Z,17.50
2019-02-24T06:53:34.307Z,19.10
2019-02-24T06:54:34.301Z,17.50
2019-02-24T06:55:34.273Z,19.40
2019-02-24T06:56:34.264Z,17.00
2019-02-24T06:57:34.265Z,23.50
2019-02-24T06:58:34.244Z,19.70
2019-02-24T06:59:34.254Z,23.30
2019-02-24T07:00:34.222Z,22.80
2019-02-24T07:01:34.213Z,23.70
2019-02-24T07:02:34.209Z,24.20
2019-02-24T07:03:34.193Z,22.70
2019-02-24T07:04:34.209Z,24.70
2019-02-24T07:05:34.171Z,24.30
2019-02-24T07:06:34.173Z,26.70
2019-02-24T07:07:34.151Z,23.50
2019-02-24T07:08:34.139Z,23.70
2019-02-24T07:09:34.146Z,23.50
2019-02-24T07:10:34.119Z,23.20
2019-02-24T07:11:34.108Z,25.60
2019-02-24T07:12:34.113Z,24.50
2019-02-24T07:13:34.090Z,24.40
2019-02-24T07:14:34.154Z,20.00
2019-02-24T07:15:34.071Z,20.20
2019-02-24T07:16:34.067Z,23.80
2019-02-24T07:17:34.048Z,23.30
2019-02-24T07:18:34.039Z,23.90
2019-02-24T07:19:35.265Z,21.40
2019-02-24T07:20:34.040Z,19.70
2019-02-24T07:21:34.018Z,18.60
2019-02-24T07:22:33.996Z,18.30
2019-02-24T07:23:33.986Z,13.10
2019-02-24T07:24:33.997Z,14.80
2019-02-24T07:25:33.967Z,17.10
2019-02-24T07:26:33.964Z,15.10
2019-02-24T07:27:33.946Z,15.10
2019-02-24T07:28:33.943Z,16.20
2019-02-24T07:29:33.942Z,15.30
2019-02-24T07:30:33.913Z,13.80
2019-02-24T07:31:33.911Z,14.10
2019-02-24T07:32:33.892Z,16.00
2019-02-24T07:33:33.886Z,15.10
2019-02-24T07:34:35.726Z,12.40
2019-02-24T07:35:33.862Z,17.10
2019-02-24T07:36:33.869Z,15.50
2019-02-24T07:37:33.840Z,12.80
2019-02-24T07:38:33.835Z,15.40
2019-02-24T07:39:33.865Z,13.80
2019-02-24T07:40:33.818Z,15.10
2019-02-24T07:41:33.802Z,15.50
2019-02-24T07:42:33.786Z,15.60
2019-02-24T07:43:33.778Z,14.80
2019-02-24T07:44:33.766Z,15.00
2019-02-24T07:45:33.786Z,13.70
2019-02-24T07:46:33.747Z,12.10
2019-02-24T07:47:33.736Z,14.60
2019-02-24T07:48:33.725Z,14.30
2019-02-24T07:49:33.751Z,12.90
2019-02-24T07:50:33.706Z,14.30
2019-02-24T07:51:33.695Z,12.40
2019-02-24T07:52:33.684Z,13.30
2019-02-24T07:53:33.674Z,13.70
2019-02-24T07:54:33.699Z,14.40
2019-02-24T07:55:33.654Z,12.20
2019-02-24T07:56:33.644Z,12.50
2019-02-24T07:57:33.636Z,14.00
2019-02-24T07:58:33.637Z,14.00
2019-02-24T07:59:33.615Z,14.20
2019-02-24T08:00:33.621Z,14.40
2019-02-24T08:01:33.593Z,14.10
2019-02-24T08:02:33.586Z,13.60
2019-02-24T08:03:33.572Z,11.60
2019-02-24T08:04:33.604Z,15.90
2019-02-24T08:05:33.551Z,11.50
2019-02-24T08:06:33.542Z,15.40
2019-02-24T08:07:33.531Z,12.50
2019-02-24T08:08:33.520Z,11.70
2019-02-24T08:09:33.541Z,14.70
2019-02-24T08:10:33.507Z,14.10
2019-02-24T08:11:33.490Z,13.90
2019-02-24T08:12:33.478Z,12.50
2019-02-24T08:13:33.481Z,11.80
2019-02-24T08:14:33.460Z,12.60
2019-02-24T08:15:33.466Z,11.50
2019-02-24T08:16:33.443Z,12.80
2019-02-24T08:17:33.426Z,12.70
2019-02-24T08:18:33.416Z,12.80
2019-02-24T08:19:33.476Z,12.50
2019-02-24T08:20:33.534Z,11.60
2019-02-24T08:21:33.389Z,13.70
2019-02-24T08:22:33.375Z,12.80
2019-02-24T08:23:33.382Z,9.90
2019-02-24T08:24:33.354Z,12.30
2019-02-24T08:25:33.362Z,10.00
2019-02-24T08:26:33.331Z,11.30
2019-02-24T08:27:33.329Z,10.30
2019-02-24T08:28:33.308Z,11.00
2019-02-24T08:29:33.346Z,10.60
2019-02-24T08:30:41.235Z,12.70
2019-02-24T08:31:34.287Z,10.60
2019-02-24T08:32:33.266Z,12.60
2019-02-24T08:33:33.255Z,12.90
2019-02-24T08:34:33.246Z,11.30
2019-02-24T08:35:33.233Z,9.80
2019-02-24T08:36:33.246Z,12.70
2019-02-24T08:37:33.211Z,13.10
2019-02-24T08:38:33.201Z,9.60
2019-02-24T08:39:33.190Z,9.50
2019-02-24T08:40:33.179Z,11.10
2019-02-24T08:41:33.189Z,10.30
2019-02-24T08:42:33.158Z,10.70
2019-02-24T08:43:33.146Z,10.50
2019-02-24T08:44:33.146Z,11.60
2019-02-24T08:45:33.181Z,13.40
2019-02-24T08:46:33.152Z,11.20
2019-02-24T08:47:33.101Z,9.00
2019-02-24T08:48:33.093Z,10.20
2019-02-24T08:49:33.080Z,10.20
2019-02-24T08:50:33.082Z,12.20
2019-02-24T08:51:33.059Z,14.10
2019-02-24T08:52:33.069Z,11.80
2019-02-24T08:53:33.041Z,11.30
2019-02-24T08:54:33.028Z,10.40
2019-02-24T08:55:33.015Z,11.90
2019-02-24T08:56:33.049Z,11.10
2019-02-24T08:57:33.011Z,10.10
2019-02-24T08:58:32.984Z,10.30
2019-02-24T08:59:32.987Z,9.20
2019-02-24T09:00:32.965Z,9.80
2019-02-24T09:01:32.954Z,11.60
2019-02-24T09:02:32.966Z,10.70
2019-02-24T09:03:32.931Z,11.10
2019-02-24T09:04:32.920Z,9.70
2019-02-24T09:05:32.912Z,11.80
2019-02-24T09:06:32.902Z,11.20
2019-02-24T09:07:32.890Z,9.90
2019-02-24T09:08:32.911Z,9.10
2019-02-24T09:09:32.868Z,10.20
2019-02-24T09:10:32.868Z,10.40
2019-02-24T09:11:32.848Z,9.60
2019-02-24T09:12:32.837Z,10.80
2019-02-24T09:13:32.845Z,11.70
2019-02-24T09:14:32.815Z,11.80
2019-02-24T09:15:32.803Z,12.30
2019-02-24T09:16:32.793Z,11.80
2019-02-24T09:17:32.799Z,10.80
2019-02-24T09:18:32.810Z,9.80
2019-02-24T09:19:32.760Z,10.70
2019-02-24T09:20:32.751Z,10.20
2019-02-24T09:21:32.755Z,12.10
2019-02-24T09:22:32.730Z,11.50
2019-02-24T09:23:32.717Z,9.90
2019-02-24T09:24:32.727Z,10.70
2019-02-24T09:25:32.708Z,9.90
2019-02-24T09:26:32.686Z,10.30
2019-02-24T09:27:32.675Z,13.20
2019-02-24T09:28:32.665Z,9.30
2019-02-24T09:29:32.676Z,11.30
2019-02-24T09:30:32.663Z,13.20
2019-02-24T09:31:32.632Z,18.10
2019-02-24T09:32:32.622Z,8.90
2019-02-24T09:33:32.611Z,9.30
2019-02-24T09:34:32.612Z,10.30
2019-02-24T09:35:32.611Z,10.50
2019-02-24T09:36:32.579Z,12.20
2019-02-24T09:37:32.570Z,11.50
2019-02-24T09:38:32.561Z,9.20
2019-02-24T09:39:32.557Z,11.20
2019-02-24T09:40:32.556Z,9.60
2019-02-24T09:41:32.526Z,9.80
2019-02-24T09:42:32.516Z,11.50
2019-02-24T09:43:32.521Z,9.40
2019-02-24T09:44:32.494Z,10.00
2019-02-24T09:45:32.511Z,9.90
2019-02-24T09:46:32.474Z,9.70
2019-02-24T09:47:32.466Z,9.10
2019-02-24T09:48:32.460Z,10.00
2019-02-24T09:49:32.441Z,10.90
2019-02-24T09:50:32.434Z,8.60
2019-02-24T09:51:32.446Z,10.20
2019-02-24T09:52:32.422Z,10.50
2019-02-24T09:53:32.402Z,8.80
2019-02-24T09:54:32.389Z,9.70
2019-02-24T09:55:32.379Z,10.20
2019-02-24T09:56:32.386Z,9.90
2019-02-24T09:57:32.366Z,8.60
2019-02-24T09:58:32.349Z,11.40
2019-02-24T09:59:32.336Z,12.30
2019-02-24T10:00:32.326Z,9.90
2019-02-24T10:01:32.345Z,10.00
2019-02-24T10:02:32.306Z,11.00
2019-02-24T10:03:32.296Z,9.90
2019-02-24T10:04:32.285Z,11.30
2019-02-24T10:05:32.273Z,13.60
2019-02-24T10:06:32.310Z,10.90
2019-02-24T10:07:32.252Z,9.10
2019-02-24T10:08:32.239Z,10.00
2019-02-24T10:09:32.228Z,9.70
2019-02-24T10:10:32.231Z,11.80
2019-02-24T10:11:32.207Z,17.00
2019-02-24T10:12:32.227Z,26.60
2019-02-24T10:13:32.187Z,11.40
2019-02-24T10:14:32.187Z,9.00
2019-02-24T10:15:32.163Z,10.10
2019-02-24T10:16:32.158Z,11.60
2019-02-24T10:17:32.192Z,13.80
2019-02-24T10:18:32.132Z,12.90
2019-02-24T10:19:32.121Z,17.50
2019-02-24T10:20:32.114Z,11.50
2019-02-24T10:21:32.112Z,17.50
2019-02-24T10:22:32.097Z,11.70
2019-02-24T10:23:39.643Z,12.60
2019-02-24T10:24:32.142Z,9.90
2019-02-24T10:25:39.671Z,9.90
2019-02-24T10:26:32.098Z,11.10
2019-02-24T10:27:39.582Z,10.10
2019-02-24T10:28:32.082Z,9.50
2019-02-24T10:29:39.566Z,9.60
2019-02-24T10:30:32.026Z,10.00
2019-02-24T10:31:31.995Z,9.20
2019-02-24T10:32:31.992Z,9.70
2019-02-24T10:33:32.031Z,8.60
2019-02-24T10:34:32.062Z,12.10
2019-02-24T10:35:31.962Z,10.70
2019-02-24T10:36:31.938Z,11.50
2019-02-24T10:37:31.930Z,9.70
2019-02-24T10:38:31.938Z,9.00
2019-02-24T10:39:31.922Z,11.90
2019-02-24T10:40:31.912Z,8.50
2019-02-24T10:41:39.477Z,10.80
2019-02-24T10:42:31.987Z,9.90
2019-02-24T10:43:39.583Z,11.60
2019-02-24T10:44:31.987Z,9.10
2019-02-24T10:46:42.786Z,10.40
2019-02-24T10:47:44.172Z,9.50
2019-02-24T10:48:42.612Z,8.20
2019-02-24T10:49:42.563Z,83.20
2019-02-24T10:50:52.546Z,47.90
2019-02-24T10:51:43.525Z,17.00
2019-02-24T10:52:42.604Z,13.60
2019-02-24T10:54:58.364Z,13.30
2019-02-24T10:56:05.724Z,11.20
2019-02-24T10:56:58.889Z,9.70
2019-02-24T10:59:18.945Z,19.30
2019-02-24T11:00:19.074Z,10.10
2019-02-24T11:01:18.827Z,13.40
2019-02-24T11:09:50.097Z,9.20
2019-02-24T11:10:50.073Z,7.70
2019-02-24T11:11:50.040Z,8.00
2019-02-24T11:12:50.029Z,9.70
2019-02-24T11:13:50.022Z,9.90
2019-02-24T11:14:50.014Z,10.80
2019-02-24T11:15:50.070Z,11.20
2019-02-24T11:16:49.989Z,6.90
2019-02-24T11:17:49.976Z,9.60
2019-02-24T11:18:49.965Z,10.90
2019-02-24T11:19:49.957Z,7.80
2019-02-24T11:20:49.987Z,8.60
2019-02-24T11:21:49.940Z,8.80
2019-02-24T11:22:49.927Z,10.80
2019-02-24T11:23:49.912Z,9.60
2019-02-24T11:24:49.901Z,8.20
2019-02-24T11:25:49.895Z,9.00
2019-02-24T11:26:49.899Z,8.70
2019-02-24T11:27:49.876Z,8.80
2019-02-24T11:28:49.892Z,8.00
2019-02-24T11:29:49.847Z,9.40
2019-02-24T11:30:49.857Z,7.70
2019-02-24T11:31:49.847Z,9.30
2019-02-24T11:32:49.818Z,10.20
2019-02-24T11:33:49.802Z,9.30
2019-02-24T11:34:49.802Z,7.50
2019-02-24T11:35:49.786Z,8.80
2019-02-24T11:36:49.813Z,10.60
2019-02-24T11:37:49.761Z,7.60
2019-02-24T11:38:49.751Z,8.50
2019-02-24T11:39:49.737Z,7.30
2019-02-24T11:40:49.727Z,7.30
2019-02-24T11:41:49.738Z,6.90
2019-02-24T11:42:49.731Z,6.90
2019-02-24T11:43:49.696Z,6.70
2019-02-24T11:44:49.688Z,6.20
2019-02-24T11:45:49.676Z,5.60
2019-02-24T11:46:49.667Z,6.30
2019-02-24T11:47:49.678Z,6.80
2019-02-24T11:48:49.642Z,7.30
2019-02-24T11:49:49.632Z,6.90
2019-02-24T11:50:49.627Z,6.50
2019-02-24T11:51:49.611Z,7.10
2019-02-24T11:52:49.607Z,7.60
2019-02-24T11:53:49.611Z,8.20
2019-02-24T11:54:49.581Z,8.90
2019-02-24T11:55:49.574Z,7.30
2019-02-24T11:56:49.556Z,7.20
2019-02-24T11:57:49.550Z,6.90
2019-02-24T11:58:49.555Z,8.40
2019-02-24T11:59:49.566Z,7.10
2019-02-24T12:00:49.515Z,8.00
2019-02-24T12:01:49.502Z,8.10
2019-02-24T12:02:49.491Z,10.80
2019-02-24T12:03:49.544Z,7.20
2019-02-24T12:04:49.516Z,10.00
2019-02-24T12:05:49.458Z,9.10
2019-02-24T12:06:49.448Z,7.60
2019-02-24T12:07:49.438Z,7.50
2019-02-24T12:08:49.428Z,6.50
2019-02-24T12:09:49.435Z,7.50
2019-02-24T12:10:49.412Z,7.80
2019-02-24T12:11:49.394Z,7.90
2019-02-24T12:12:49.398Z,8.30
2019-02-24T12:13:49.445Z,7.00
2019-02-24T12:14:49.382Z,8.20
2019-02-24T12:15:49.357Z,7.50
2019-02-24T12:16:49.344Z,9.10
2019-02-24T12:17:49.331Z,6.40
2019-02-24T12:18:49.323Z,7.10
2019-02-24T12:19:49.338Z,6.90
2019-02-24T12:20:49.297Z,8.90
2019-02-24T12:21:49.284Z,8.00
2019-02-24T12:22:49.274Z,6.40
2019-02-24T12:23:49.275Z,7.00
2019-02-24T12:24:49.294Z,7.60
2019-02-24T12:25:49.243Z,7.20
2019-02-24T12:26:49.235Z,7.80
2019-02-24T12:27:49.222Z,6.30
2019-02-24T12:28:49.209Z,7.70
2019-02-24T12:29:49.207Z,6.50
2019-02-24T12:30:49.225Z,6.80
2019-02-24T12:31:56.401Z,6.40
2019-02-24T12:32:50.203Z,7.40
2019-02-24T12:33:49.164Z,7.70
2019-02-24T12:34:49.144Z,7.20
2019-02-24T12:35:49.900Z,6.20
2019-02-24T12:36:49.122Z,5.00
2019-02-24T12:37:49.116Z,7.20
2019-02-24T12:38:49.103Z,7.20
2019-02-24T12:39:49.100Z,6.70
2019-02-24T12:40:49.121Z,6.80
2019-02-24T12:41:49.086Z,6.60
2019-02-24T12:42:49.059Z,5.80
2019-02-24T12:43:49.047Z,7.70
2019-02-24T12:44:49.037Z,5.60
2019-02-24T12:45:49.025Z,7.20
2019-02-24T12:46:49.034Z,5.70
2019-02-24T12:47:49.005Z,6.90
2019-02-24T12:48:48.993Z,6.50
2019-02-24T12:49:48.983Z,5.90
2019-02-24T12:50:48.977Z,6.00
2019-02-24T12:51:48.980Z,6.70
2019-02-24T12:52:48.949Z,6.80
2019-02-24T12:53:48.942Z,5.50
2019-02-24T12:54:48.929Z,7.00
2019-02-24T12:55:48.919Z,6.30
2019-02-24T12:56:48.928Z,9.40
2019-02-24T12:57:48.896Z,7.10
2019-02-24T12:58:48.886Z,7.40
2019-02-24T12:59:48.882Z,7.30
2019-02-24T13:00:48.866Z,6.20
2019-02-24T13:01:48.878Z,6.60
2019-02-24T13:02:48.848Z,4.90
2019-02-24T13:03:48.836Z,4.80
2019-02-24T13:04:48.824Z,5.20
2019-02-24T13:05:48.811Z,5.00
2019-02-24T13:06:48.821Z,4.80
2019-02-24T13:07:48.843Z,5.20
2019-02-24T13:08:48.794Z,4.70